createdAt,value
2022-09-03T00:00:08.068Z,69.48
2022-09-03T00:05:16.440Z,70.21
2022-09-03T00:10:22.548Z,70.79
2022-09-03T00:15:25.306Z,71.33
2022-09-03T00:20:31.269Z,71.20
2022-09-03T00:25:39.186Z,71.76
2022-09-03T00:30:43.335Z,71.59
2022-09-03T00:35:48.610Z,72.14
2022-09-03T00:41:03.313Z,72.62
2022-09-03T00:46:13.651Z,73.76
2022-09-03T00:51:25.863Z,73.95
2022-09-03T00:56:34.689Z,73.86
2022-09-03T01:01:45.972Z,74.31
2022-09-03T01:06:58.772Z,74.92
2022-09-03T01:12:06.817Z,75.77
2022-09-03T01:17:17.455Z,75.26
2022-09-03T01:22:48.582Z,75.09
2022-09-03T01:28:02.997Z,74.67
2022-09-03T01:33:14.998Z,75.38
2022-09-03T01:38:25.358Z,75.96
2022-09-03T01:43:45.275Z,75.41
2022-09-03T01:48:53.983Z,74.29
2022-09-03T01:54:21.561Z,73.92
2022-09-03T01:59:29.821Z,75.13
2022-09-03T02:04:31.761Z,75.17
2022-09-03T02:09:32.743Z,74.59
2022-09-03T02:14:36.216Z,75.31
2022-09-03T02:19:38.031Z,76.53
2022-09-03T02:24:38.660Z,77.45
2022-09-03T02:29:40.636Z,77.12
2022-09-03T02:34:41.525Z,77.57
2022-09-03T02:39:42.405Z,78.20
2022-09-03T02:44:49.357Z,78.53
2022-09-03T02:49:50.496Z,79.24
2022-09-03T02:54:51.327Z,78.76
2022-09-03T02:59:53.294Z,78.65
2022-09-03T03:04:55.111Z,79.25
2022-09-03T03:09:55.754Z,79.81
2022-09-03T03:14:57.726Z,80.29
2022-09-03T03:19:58.370Z,79.46
2022-09-03T03:24:58.984Z,80.13
2022-09-03T03:30:00.965Z,81.00
2022-09-03T03:35:01.612Z,80.58
2022-09-03T03:40:02.330Z,80.19
2022-09-03T03:45:05.255Z,81.24
2022-09-03T03:50:07.018Z,81.91
2022-09-03T03:55:08.414Z,82.16
2022-09-03T04:00:11.489Z,82.73
2022-09-03T04:05:19.187Z,83.76
2022-09-03T04:10:23.941Z,83.99
2022-09-03T04:15:25.929Z,84.64
2022-09-03T04:20:26.647Z,85.17
2022-09-03T04:25:27.383Z,85.30
2022-09-03T04:30:29.387Z,85.24
2022-09-03T04:35:31.770Z,86.13
2022-09-03T04:40:32.453Z,85.46
2022-09-03T04:45:34.479Z,85.97
2022-09-03T04:50:35.673Z,86.32
2022-09-03T04:55:37.041Z,86.25
2022-09-03T05:00:39.933Z,85.65
2022-09-03T05:05:40.599Z,85.17
2022-09-03T05:10:41.196Z,85.72
2022-09-03T05:15:45.426Z,85.54
2022-09-03T05:20:46.038Z,85.50
2022-09-03T05:25:56.432Z,85.37
2022-09-03T05:31:02.271Z,84.59
2022-09-03T05:36:04.379Z,83.74
2022-09-03T05:41:07.680Z,84.28
2022-09-03T05:46:12.244Z,83.49
2022-09-03T05:51:16.359Z,83.08
2022-09-03T05:56:19.073Z,83.02
2022-09-03T06:01:22.525Z,81.77
2022-09-03T06:06:25.744Z,80.02
2022-09-03T06:11:28.121Z,78.74
2022-09-03T06:16:32.139Z,78.52
2022-09-03T06:21:33.074Z,77.61
2022-09-03T06:26:33.788Z,75.95
2022-09-03T06:31:38.334Z,75.54
2022-09-03T06:36:39.063Z,74.86
2022-09-03T06:41:40.222Z,73.76
2022-09-03T06:46:43.459Z,72.39
2022-09-03T06:51:44.325Z,71.99
2022-09-03T06:56:44.942Z,71.07
2022-09-03T07:01:48.643Z,70.60
2022-09-03T07:06:49.484Z,69.60
2022-09-03T07:11:50.127Z,69.66
2022-09-03T07:16:52.070Z,68.00
2022-09-03T07:21:52.656Z,67.24
2022-09-03T07:26:53.295Z,66.43
2022-09-03T07:31:55.289Z,65.23
2022-09-03T07:36:56.247Z,64.92
2022-09-03T07:41:58.236Z,64.51
2022-09-03T07:47:00.823Z,63.22
2022-09-03T07:52:03.023Z,62.80
2022-09-03T07:57:03.712Z,61.79
2022-09-03T08:02:06.049Z,60.72
2022-09-03T08:07:06.769Z,61.00
2022-09-03T08:12:07.825Z,60.30
2022-09-03T08:17:09.798Z,59.60
2022-09-03T08:22:10.883Z,56.87
2022-09-03T08:27:11.497Z,56.84
2022-09-03T08:32:14.314Z,56.72
2022-09-03T08:37:14.968Z,55.57
2022-09-03T08:42:29.834Z,53.23
2022-09-03T08:47:38.179Z,51.42
2022-09-03T08:52:49.007Z,50.63
2022-09-03T08:57:51.859Z,50.09
2022-09-03T09:03:06.738Z,49.77
2022-09-03T09:08:20.186Z,48.99
2022-09-03T09:13:27.686Z,49.65
2022-09-03T09:18:46.672Z,48.15
2022-09-03T09:23:49.356Z,48.01
2022-09-03T09:28:57.176Z,46.94
2022-09-03T09:34:05.034Z,47.08
2022-09-03T09:39:10.468Z,46.57
2022-09-03T09:44:20.719Z,46.78
2022-09-03T09:49:32.806Z,45.97
2022-09-03T09:54:33.522Z,46.21
2022-09-03T09:59:37.926Z,45.46
2022-09-03T10:04:40.511Z,45.08
2022-09-03T10:09:41.148Z,44.82
2022-09-03T10:14:47.672Z,44.03
2022-09-03T10:20:19.300Z,44.31
2022-09-03T10:25:22.295Z,44.36
2022-09-03T10:30:23.999Z,45.18
2022-09-03T10:35:30.483Z,44.21
2022-09-03T10:40:38.704Z,43.62
2022-09-03T10:45:45.408Z,41.98
2022-09-03T10:50:53.749Z,41.52
2022-09-03T10:56:02.436Z,40.92
2022-09-03T11:01:09.111Z,40.12
2022-09-03T11:06:14.462Z,41.06
2022-09-03T11:11:21.714Z,40.44
2022-09-03T11:16:27.255Z,40.33
2022-09-03T11:21:32.504Z,41.18
2022-09-03T11:26:35.274Z,39.96
2022-09-03T11:31:48.091Z,40.19
2022-09-03T11:36:50.116Z,39.64
2022-09-03T11:42:02.278Z,40.96
2022-09-03T11:47:02.915Z,40.73
2022-09-03T11:52:08.014Z,41.09
2022-09-03T11:57:13.827Z,41.29
2022-09-03T12:02:27.290Z,41.07
2022-09-03T12:08:01.035Z,39.69
2022-09-03T12:13:28.390Z,39.16
2022-09-03T12:18:32.234Z,39.70
2022-09-03T12:23:36.267Z,39.20
2022-09-03T12:28:38.700Z,37.87
2022-09-03T12:33:45.335Z,36.96
2022-09-03T12:39:10.431Z,36.43
2022-09-03T12:44:11.933Z,37.17
2022-09-03T12:49:31.713Z,37.31
2022-09-03T12:54:34.701Z,36.69
2022-09-03T12:59:39.327Z,36.93
2022-09-03T13:04:41.234Z,37.68
2022-09-03T13:09:43.740Z,37.98
2022-09-03T13:14:47.264Z,39.15
2022-09-03T13:20:16.019Z,38.98
2022-09-03T13:25:28.092Z,38.29
2022-09-03T13:30:38.060Z,37.58
2022-09-03T13:35:45.964Z,36.49
2022-09-03T13:40:52.961Z,36.07
2022-09-03T13:45:58.343Z,36.81
2022-09-03T13:51:12.486Z,35.19
2022-09-03T13:56:28.146Z,36.71
2022-09-03T14:01:54.538Z,36.34
2022-09-03T14:07:03.848Z,37.37
2022-09-03T14:12:14.669Z,38.06
2022-09-03T14:17:20.439Z,37.94
2022-09-03T14:22:25.922Z,38.43
2022-09-03T14:27:30.609Z,38.75
2022-09-03T14:32:41.337Z,39.91
2022-09-03T14:38:22.654Z,40.28
2022-09-03T14:43:42.485Z,39.46
2022-09-03T14:49:04.809Z,40.12
2022-09-03T14:54:21.406Z,39.78
2022-09-03T14:59:39.385Z,39.41
2022-09-03T15:04:52.809Z,39.76
2022-09-03T15:10:03.088Z,39.10
2022-09-03T15:15:14.205Z,39.01
2022-09-03T15:20:23.767Z,38.16
2022-09-03T15:25:40.209Z,38.70
2022-09-03T15:30:51.237Z,37.81
2022-09-03T15:36:07.607Z,38.24
2022-09-03T15:41:14.022Z,38.50
2022-09-03T15:46:38.294Z,38.35
2022-09-03T15:51:50.037Z,38.97
2022-09-03T15:56:56.800Z,39.77
2022-09-03T16:02:04.879Z,40.20
2022-09-03T16:07:16.874Z,40.57
2022-09-03T16:12:28.517Z,40.09
2022-09-03T16:17:36.296Z,39.74
2022-09-03T16:22:44.978Z,40.09
2022-09-03T16:27:57.293Z,40.07
2022-09-03T16:33:10.191Z,38.92
2022-09-03T16:38:28.365Z,39.46
2022-09-03T16:43:42.018Z,40.58
2022-09-03T16:48:54.689Z,41.84
2022-09-03T16:54:18.270Z,41.28
2022-09-03T16:59:40.640Z,37.43
2022-09-03T17:05:10.635Z,36.86
2022-09-03T17:10:22.691Z,36.38
2022-09-03T17:15:33.920Z,37.38
2022-09-03T17:20:58.978Z,39.86
2022-09-03T17:26:07.148Z,41.98
2022-09-03T17:31:16.124Z,43.86
2022-09-03T17:36:24.391Z,45.91
2022-09-03T17:41:37.347Z,47.11
2022-09-03T17:46:47.462Z,48.17
2022-09-03T17:51:53.225Z,49.21
2022-09-03T17:57:01.423Z,50.03
2022-09-03T18:02:08.914Z,51.36
2022-09-03T18:07:19.452Z,51.74
2022-09-03T18:12:30.529Z,53.02
2022-09-03T18:17:36.048Z,53.80
2022-09-03T18:23:03.847Z,54.50
2022-09-03T18:28:26.195Z,55.32
2022-09-03T18:33:45.760Z,55.85
2022-09-03T18:39:05.177Z,56.76
2022-09-03T18:44:33.436Z,57.83
2022-09-03T18:49:59.241Z,58.39
2022-09-03T18:55:29.509Z,58.71
2022-09-03T19:00:53.570Z,59.67
2022-09-03T19:06:24.067Z,60.35
2022-09-03T19:11:52.348Z,60.47
2022-09-03T19:17:22.954Z,60.79
2022-09-03T19:22:47.994Z,60.51
2022-09-03T19:28:21.685Z,60.98
2022-09-03T19:33:48.603Z,61.32
2022-09-03T19:39:23.003Z,61.32
2022-09-03T19:44:58.507Z,62.24
2022-09-03T19:50:31.517Z,62.44
2022-09-03T19:55:53.926Z,62.48
2022-09-03T20:01:13.617Z,62.55
2022-09-03T20:06:33.480Z,63.18
2022-09-03T20:11:34.192Z,63.02
2022-09-03T20:16:45.498Z,63.01
2022-09-03T20:21:51.027Z,63.78
2022-09-03T20:26:58.134Z,63.99
2022-09-03T20:32:09.059Z,63.68
2022-09-03T20:37:24.556Z,64.38
2022-09-03T20:42:40.029Z,64.25
2022-09-03T20:48:10.902Z,64.77
2022-09-03T20:53:25.776Z,64.57
2022-09-03T20:58:38.087Z,64.54
2022-09-03T21:03:49.114Z,65.27
2022-09-03T21:09:02.435Z,65.29
2022-09-03T21:14:14.678Z,65.29
2022-09-03T21:19:23.172Z,65.66
2022-09-03T21:24:31.276Z,65.22
2022-09-03T21:29:38.970Z,65.74
2022-09-03T21:34:51.879Z,66.33
2022-09-03T21:39:56.208Z,66.68
2022-09-03T21:45:01.228Z,67.43
2022-09-03T21:50:13.096Z,67.58
2022-09-03T21:55:23.273Z,68.26
2022-09-03T22:00:32.604Z,68.60
2022-09-03T22:05:48.954Z,69.07
2022-09-03T22:11:04.246Z,69.46
2022-09-03T22:16:13.763Z,69.90
2022-09-03T22:21:23.454Z,70.46
2022-09-03T22:26:45.052Z,70.47
2022-09-03T22:31:58.703Z,70.96
2022-09-03T22:37:03.606Z,71.58
2022-09-03T22:42:20.986Z,72.15
2022-09-03T22:47:33.933Z,71.72
2022-09-03T22:52:42.981Z,72.57
2022-09-03T22:57:55.728Z,73.04
2022-09-03T23:03:03.603Z,74.00
2022-09-03T23:08:12.217Z,74.02
2022-09-03T23:13:19.281Z,74.38
2022-09-03T23:18:26.986Z,74.90
2022-09-03T23:23:32.541Z,75.38
2022-09-03T23:28:36.461Z,75.35
2022-09-03T23:33:37.091Z,75.16
2022-09-03T23:38:54.073Z,75.11
2022-09-03T23:44:12.275Z,75.12
2022-09-03T23:49:42.651Z,74.64
2022-09-03T23:54:48.896Z,74.96
